Time;durP1;ratioP1;P1;durP2;ratioP2;P2;SDS_P1;SDS_P2;PMS_P1;PMS_P2;Temp;Humidity;BMP_temperature;BMP_pressure;BME280_temperature;BME280_humidity;BME280_pressure;Samples;Min_cycle;Max_cycle;Signal;HPM_P1;HPM_P2
2021/10/11 00:01:25;;;;;;;6.75;2.67;;;;;;;5.96;100.00;102946.38;4971531;28;20396;-65
2021/10/11 00:03:50;;;;;;;4.05;2.38;;;;;;;5.99;100.00;102949.72;4961054;28;20039;-66
2021/10/11 00:06:16;;;;;;;6.70;2.40;;;;;;;5.94;100.00;102946.44;4957821;28;20027;-64
2021/10/11 00:08:42;;;;;;;4.72;2.45;;;;;;;5.80;100.00;102930.38;4941980;28;20035;-65
2021/10/11 00:11:07;;;;;;;5.63;2.90;;;;;;;5.86;100.00;102946.03;4974740;28;20046;-66
2021/10/11 00:13:33;;;;;;;5.78;2.63;;;;;;;5.85;100.00;102947.84;4938620;28;20043;-65
2021/10/11 00:15:59;;;;;;;5.00;2.35;;;;;;;5.81;100.00;102958.78;4983743;28;20353;-67
2021/10/11 00:18:25;;;;;;;4.90;2.20;;;;;;;5.85;100.00;102965.66;4957978;28;20477;-64
2021/10/11 00:20:50;;;;;;;4.43;2.40;;;;;;;5.85;100.00;102961.19;4964367;28;20540;-65
2021/10/11 00:23:16;;;;;;;4.70;2.30;;;;;;;5.78;100.00;102956.28;4956769;28;20381;-67
2021/10/11 00:25:42;;;;;;;2.90;2.10;;;;;;;5.73;100.00;102951.22;4961714;28;20503;-67
2021/10/11 00:28:08;;;;;;;5.80;2.35;;;;;;;5.68;100.00;102950.63;4934718;28;20037;-68
2021/10/11 00:30:34;;;;;;;5.18;2.40;;;;;;;5.67;100.00;102957.78;4966441;28;20039;-65
2021/10/11 00:33:01;;;;;;;9.23;2.50;;;;;;;5.63;100.00;102961.56;4945276;28;20040;-69
2021/10/11 00:35:27;;;;;;;4.47;2.10;;;;;;;5.60;100.00;102956.41;4937325;28;20066;-65
2021/10/11 00:37:52;;;;;;;12.02;3.65;;;;;;;5.59;100.00;102945.84;4952191;28;20140;-67
2021/10/11 00:40:18;;;;;;;5.60;2.10;;;;;;;5.50;100.00;102934.75;4970819;28;20045;-65
2021/10/11 00:42:43;;;;;;;5.40;2.83;;;;;;;5.56;100.00;102941.53;4978800;28;20041;-65
2021/10/11 00:45:09;;;;;;;5.80;2.13;;;;;;;5.55;100.00;102931.81;4961336;28;20035;-64
2021/10/11 00:47:36;;;;;;;7.10;2.60;;;;;;;5.53;100.00;102928.38;4937879;28;20566;-66
2021/10/11 00:50:01;;;;;;;5.10;2.20;;;;;;;5.53;100.00;102930.16;4947573;28;20153;-66
2021/10/11 00:52:27;;;;;;;5.22;1.80;;;;;;;5.52;100.00;102934.66;4966666;28;20084;-65
2021/10/11 00:54:53;;;;;;;4.22;2.05;;;;;;;5.51;100.00;102930.28;4989805;28;20026;-66
2021/10/11 00:57:19;;;;;;;3.10;2.10;;;;;;;5.52;100.00;102931.97;4968481;28;20026;-66
2021/10/11 00:59:45;;;;;;;4.28;2.20;;;;;;;5.47;100.00;102934.06;4970852;28;20071;-64
2021/10/11 01:02:10;;;;;;;8.15;2.20;;;;;;;5.44;100.00;102928.91;4942353;28;20054;-66
2021/10/11 01:04:36;;;;;;;8.82;2.97;;;;;;;5.40;100.00;102930.03;4972116;28;20039;-65
2021/10/11 01:07:02;;;;;;;12.40;3.60;;;;;;;5.32;100.00;102929.59;4941798;28;20043;-69
2021/10/11 01:09:28;;;;;;;8.07;3.65;;;;;;;5.25;100.00;102935.31;4942210;28;20053;-64
2021/10/11 01:11:54;;;;;;;7.03;3.03;;;;;;;5.19;100.00;102932.13;4909849;28;20118;-67
2021/10/11 01:14:19;;;;;;;6.28;2.83;;;;;;;5.16;100.00;102921.63;4962132;28;20121;-65
2021/10/11 01:16:46;;;;;;;12.48;3.95;;;;;;;5.13;100.00;102920.00;4965906;28;20152;-63
2021/10/11 01:19:12;;;;;;;9.95;4.00;;;;;;;5.09;100.00;102909.59;4970919;28;20030;-66
2021/10/11 01:21:38;;;;;;;6.18;2.47;;;;;;;5.10;100.00;102914.84;4955245;28;20049;-67
2021/10/11 01:24:04;;;;;;;5.90;2.40;;;;;;;5.03;100.00;102900.16;4962931;28;20042;-64
2021/10/11 01:26:36;;;;;;;7.93;2.53;;;;;;;5.00;100.00;102900.31;4971926;28;20045;-64
2021/10/11 01:29:03;;;;;;;5.95;2.20;;;;;;;4.97;100.00;102895.16;4988973;28;20059;-65
2021/10/11 01:31:28;;;;;;;7.13;2.28;;;;;;;4.97;100.00;102900.47;4957529;28;20076;-64
2021/10/11 01:33:54;;;;;;;6.05;2.42;;;;;;;4.96;100.00;102904.97;4967862;28;20062;-64
2021/10/11 01:36:19;;;;;;;4.47;2.50;;;;;;;4.99;100.00;102904.78;4967271;28;20030;-66
2021/10/11 01:38:45;;;;;;;4.45;2.45;;;;;;;4.97;100.00;102909.34;4955017;28;20042;-67
2021/10/11 01:41:15;;;;;;;5.00;2.90;;;;;;;4.97;100.00;102912.00;4981323;28;20049;-65
2021/10/11 01:43:41;;;;;;;8.55;3.30;;;;;;;4.93;100.00;102915.78;4975292;28;20038;-64
2021/10/11 01:46:06;;;;;;;5.35;2.92;;;;;;;4.88;100.00;102920.53;4960129;28;20098;-67
2021/10/11 01:48:38;;;;;;;6.60;3.67;;;;;;;4.83;100.00;102914.59;4970677;28;20488;-66
2021/10/11 01:51:04;;;;;;;4.13;2.22;;;;;;;4.80;100.00;102920.09;4942783;28;20062;-65
2021/10/11 01:53:30;;;;;;;7.55;2.83;;;;;;;4.83;100.00;102911.94;4974785;28;20408;-64
2021/10/11 01:55:56;;;;;;;6.47;3.28;;;;;;;4.81;100.00;102909.34;4943745;28;20043;-67
2021/10/11 01:58:21;;;;;;;5.50;2.83;;;;;;;4.82;100.00;102896.88;4960283;28;20181;-65
2021/10/11 02:00:47;;;;;;;4.68;2.30;;;;;;;4.82;100.00;102884.41;4968989;28;20166;-69
2021/10/11 02:03:13;;;;;;;3.53;2.38;;;;;;;4.84;100.00;102890.53;4961827;28;20033;-65
2021/10/11 02:05:38;;;;;;;5.93;2.35;;;;;;;4.91;100.00;102898.16;4942065;28;20054;-69
2021/10/11 02:08:04;;;;;;;3.65;2.10;;;;;;;4.89;100.00;102887.56;4971149;28;20447;-66
2021/10/11 02:10:30;;;;;;;3.28;1.95;;;;;;;4.87;100.00;102880.63;4972736;28;20051;-66
2021/10/11 02:12:59;;;;;;;5.88;2.17;;;;;;;4.85;100.00;102876.25;4946318;28;20045;-67
2021/10/11 02:15:27;;;;;;;4.35;1.85;;;;;;;4.84;100.00;102876.31;4958564;28;20039;-64
2021/10/11 02:17:53;;;;;;;5.55;1.80;;;;;;;4.74;100.00;102877.81;4961904;28;20249;-63
2021/10/11 02:20:19;;;;;;;4.55;2.00;;;;;;;4.68;100.00;102872.78;4945150;28;20812;-64
2021/10/11 02:22:45;;;;;;;6.35;1.67;;;;;;;4.65;100.00;102875.63;4964850;28;20046;-66
2021/10/11 02:25:11;;;;;;;3.63;1.55;;;;;;;4.61;100.00;102869.63;4942004;28;20068;-64
2021/10/11 02:27:43;;;;;;;3.42;1.48;;;;;;;4.63;100.00;102878.38;4970545;28;20432;-64
2021/10/11 02:30:10;;;;;;;6.30;1.95;;;;;;;4.59;100.00;102871.50;4936480;28;20468;-68
2021/10/11 02:32:37;;;;;;;4.75;1.85;;;;;;;4.56;100.00;102879.69;4936793;28;20533;-65
2021/10/11 02:35:03;;;;;;;6.40;2.05;;;;;;;4.54;100.00;102874.41;4968728;28;20038;-67
2021/10/11 02:37:28;;;;;;;2.70;1.60;;;;;;;4.51;100.00;102874.59;4967109;28;20023;-64
2021/10/11 02:39:55;;;;;;;4.28;1.67;;;;;;;4.44;100.00;102864.34;4962515;28;20121;-64
2021/10/11 02:42:20;;;;;;;3.65;1.60;;;;;;;4.43;100.00;102858.19;4965726;28;20046;-65
2021/10/11 02:44:46;;;;;;;4.40;1.90;;;;;;;4.37;100.00;102847.88;4956670;28;20404;-64
2021/10/11 02:47:12;;;;;;;6.57;1.73;;;;;;;4.42;100.00;102853.81;4967938;28;20072;-66
2021/10/11 02:49:38;;;;;;;4.43;1.38;;;;;;;4.37;100.00;102843.41;4960240;28;20112;-66
2021/10/11 02:52:04;;;;;;;4.90;1.45;;;;;;;4.36;100.00;102854.97;4929550;28;20472;-65
2021/10/11 02:54:30;;;;;;;3.80;1.35;;;;;;;4.35;100.00;102844.41;4971004;28;20057;-65
2021/10/11 02:56:55;;;;;;;2.20;1.30;;;;;;;4.42;100.00;102869.78;4949351;28;20034;-65
2021/10/11 02:59:21;;;;;;;1.75;1.38;;;;;;;4.43;100.00;102866.16;4961370;28;20038;-65
2021/10/11 03:01:47;;;;;;;2.22;1.27;;;;;;;4.41;100.00;102860.91;4952680;28;20126;-66
2021/10/11 03:04:12;;;;;;;2.88;1.80;;;;;;;4.47;100.00;102862.38;4973480;28;20125;-64
2021/10/11 03:06:38;;;;;;;2.80;1.40;;;;;;;4.44;100.00;102865.22;4955797;28;20046;-67
2021/10/11 03:09:05;;;;;;;3.30;1.77;;;;;;;4.40;100.00;102853.03;4950240;28;20130;-66
2021/10/11 03:11:31;;;;;;;3.05;1.63;;;;;;;4.38;100.00;102852.25;4953587;28;20043;-64
2021/10/11 03:13:57;;;;;;;4.70;2.10;;;;;;;4.41;100.00;102842.25;4964735;28;20153;-65
2021/10/11 03:16:22;;;;;;;3.10;1.88;;;;;;;4.38;100.00;102846.91;4971803;28;20045;-65
2021/10/11 03:18:48;;;;;;;2.28;1.58;;;;;;;4.35;100.00;102847.09;4944191;28;20041;-64
2021/10/11 03:21:17;;;;;;;3.60;1.70;;;;;;;4.38;100.00;102845.09;4952486;28;20065;-66
2021/10/11 03:23:47;;;;;;;4.30;2.00;;;;;;;4.37;100.00;102842.53;4947407;28;20109;-64
2021/10/11 03:26:13;;;;;;;4.60;1.50;;;;;;;4.34;100.00;102840.91;4985193;28;20038;-64
2021/10/11 03:28:41;;;;;;;4.00;1.63;;;;;;;4.29;100.00;102832.31;4932370;28;20065;-66
2021/10/11 03:31:07;;;;;;;3.53;1.50;;;;;;;4.37;100.00;102839.88;4955918;28;20030;-64
2021/10/11 03:33:33;;;;;;;2.92;1.45;;;;;;;4.37;100.00;102840.72;4964542;28;20034;-66
2021/10/11 03:35:58;;;;;;;3.47;1.77;;;;;;;4.32;100.00;102831.28;4942425;28;20050;-64
2021/10/11 03:38:27;;;;;;;5.45;2.08;;;;;;;4.35;100.00;102847.94;4968357;28;20046;-64
2021/10/11 03:40:52;;;;;;;3.10;1.40;;;;;;;4.31;100.00;102835.75;4959120;28;20026;-65
2021/10/11 03:43:18;;;;;;;5.75;1.70;;;;;;;4.33;100.00;102835.66;4938279;28;20042;-65
2021/10/11 03:45:44;;;;;;;3.95;1.30;;;;;;;4.30;100.00;102828.69;4968829;28;20051;-63
2021/10/11 03:48:09;;;;;;;2.83;1.30;;;;;;;4.28;100.00;102827.06;4953711;28;20110;-65
2021/10/11 03:50:35;;;;;;;3.97;1.55;;;;;;;4.27;100.00;102833.34;4949864;28;20050;-65
2021/10/11 03:53:01;;;;;;;2.67;1.42;;;;;;;4.18;100.00;102829.34;4943896;28;20381;-67
2021/10/11 03:55:27;;;;;;;3.35;1.55;;;;;;;4.13;100.00;102831.44;4940340;28;20039;-66
2021/10/11 03:57:53;;;;;;;3.15;1.70;;;;;;;4.10;100.00;102837.78;4948902;28;20408;-64
2021/10/11 04:00:18;;;;;;;2.72;1.70;;;;;;;4.04;100.00;102835.41;4937608;28;20081;-66
2021/10/11 04:02:44;;;;;;;2.30;1.40;;;;;;;3.99;100.00;102828.63;4960214;28;20038;-65
2021/10/11 04:05:10;;;;;;;3.05;1.52;;;;;;;3.95;100.00;102834.13;4969130;28;20046;-65
2021/10/11 04:07:38;;;;;;;2.42;1.42;;;;;;;3.90;100.00;102828.19;4950158;28;20353;-65
2021/10/11 04:10:06;;;;;;;4.32;1.70;;;;;;;3.92;100.00;102828.13;4969309;28;20076;-68
2021/10/11 04:12:36;;;;;;;3.13;1.40;;;;;;;3.92;100.00;102834.28;4938129;28;20133;-67
2021/10/11 04:15:06;;;;;;;4.95;1.63;;;;;;;3.91;100.00;102829.03;4970180;28;20035;-65
2021/10/11 04:17:38;;;;;;;4.43;1.60;;;;;;;3.93;100.00;102828.00;4943020;28;20041;-68
2021/10/11 04:20:08;;;;;;;2.63;1.50;;;;;;;3.90;100.00;102824.66;4965321;28;20451;-63
2021/10/11 04:22:34;;;;;;;2.97;1.48;;;;;;;3.81;100.00;102812.72;4953942;28;20558;-65
2021/10/11 04:25:00;;;;;;;2.20;1.38;;;;;;;3.85;100.00;102811.59;4949593;28;20095;-64
2021/10/11 04:27:26;;;;;;;4.53;1.73;;;;;;;3.87;100.00;102815.03;4962746;28;20555;-65
2021/10/11 04:29:52;;;;;;;3.17;1.60;;;;;;;3.89;100.00;102809.63;4954072;28;20381;-64
2021/10/11 04:32:18;;;;;;;5.55;2.75;;;;;;;3.85;100.00;102819.56;4955833;28;20031;-64
2021/10/11 04:34:43;;;;;;;5.63;2.40;;;;;;;3.86;100.00;102818.63;4953774;28;20414;-66
2021/10/11 04:37:09;;;;;;;8.15;3.78;;;;;;;3.88;100.00;102811.44;4938109;28;20373;-66
2021/10/11 04:39:35;;;;;;;7.65;2.95;;;;;;;3.91;100.00;102821.91;4945806;28;20458;-69
2021/10/11 04:42:01;;;;;;;5.95;2.58;;;;;;;3.92;100.00;102828.13;4938552;28;20460;-65
2021/10/11 04:44:27;;;;;;;5.82;2.30;;;;;;;3.95;100.00;102817.28;4954931;28;20038;-64
2021/10/11 04:46:53;;;;;;;5.88;2.40;;;;;;;3.98;100.00;102817.13;4989114;28;20037;-65
2021/10/11 04:49:18;;;;;;;3.88;2.17;;;;;;;3.95;100.00;102818.16;4949217;28;20038;-64
2021/10/11 04:51:44;;;;;;;5.25;2.30;;;;;;;3.94;100.00;102810.22;4957408;28;20077;-66
2021/10/11 04:54:10;;;;;;;6.65;2.03;;;;;;;3.95;100.00;102812.81;4948072;28;20050;-63
2021/10/11 04:56:36;;;;;;;4.97;1.60;;;;;;;3.95;100.00;102812.81;4972382;28;20042;-67
2021/10/11 04:59:02;;;;;;;5.18;2.08;;;;;;;3.99;100.00;102828.63;4939813;28;20588;-65
2021/10/11 05:01:27;;;;;;;3.05;1.63;;;;;;;3.99;100.00;102812.66;4972830;28;20045;-65
2021/10/11 05:03:53;;;;;;;4.72;1.75;;;;;;;4.03;100.00;102817.75;4941109;28;20031;-66
2021/10/11 05:06:19;;;;;;;5.10;1.77;;;;;;;4.06;100.00;102822.03;4952896;28;20109;-64
2021/10/11 05:08:44;;;;;;;3.53;1.67;;;;;;;4.07;100.00;102826.41;4938785;28;20046;-70
2021/10/11 05:11:11;;;;;;;5.60;2.30;;;;;;;4.09;100.00;102832.53;4941453;28;20057;-68
2021/10/11 05:13:36;;;;;;;9.52;2.53;;;;;;;4.08;100.00;102817.50;4956878;28;20066;-64
2021/10/11 05:16:02;;;;;;;4.35;1.77;;;;;;;4.08;100.00;102818.34;4941734;28;20563;-63
2021/10/11 05:18:28;;;;;;;2.78;1.40;;;;;;;4.08;100.00;102806.84;4944362;28;20122;-67
2021/10/11 05:20:57;;;;;;;2.13;1.20;;;;;;;4.07;100.00;102797.13;4959582;28;20178;-65
2021/10/11 05:23:23;;;;;;;4.70;1.40;;;;;;;4.07;100.00;102799.78;4939054;28;20473;-66
2021/10/11 05:25:49;;;;;;;6.78;1.60;;;;;;;4.08;100.00;102798.88;4956784;28;20082;-67
2021/10/11 05:28:14;;;;;;;3.25;1.30;;;;;;;4.08;100.00;102809.50;4940847;28;20031;-68
2021/10/11 05:30:40;;;;;;;6.43;1.38;;;;;;;4.06;100.00;102804.25;4972773;28;20043;-65
2021/10/11 05:33:08;;;;;;;2.53;1.20;;;;;;;4.01;100.00;102808.13;4941598;28;20031;-64
2021/10/11 05:35:34;;;;;;;2.97;1.20;;;;;;;3.97;100.00;102816.28;4937173;29;20200;-65
2021/10/11 05:38:04;;;;;;;5.38;1.40;;;;;;;3.97;100.00;102824.25;4941017;28;20597;-65
2021/10/11 05:40:30;;;;;;;3.58;1.38;;;;;;;3.95;100.00;102825.28;4954865;28;20026;-65
2021/10/11 05:42:56;;;;;;;2.35;1.20;;;;;;;3.93;100.00;102837.81;4940775;28;20126;-64
2021/10/11 05:45:22;;;;;;;3.00;1.00;;;;;;;3.91;100.00;102831.69;4940602;28;20121;-64
2021/10/11 05:47:48;;;;;;;3.70;1.38;;;;;;;3.89;100.00;102826.47;4956157;28;20042;-65
2021/10/11 05:50:14;;;;;;;2.60;1.48;;;;;;;3.87;100.00;102833.66;4939287;28;20500;-66
2021/10/11 05:52:39;;;;;;;3.80;1.10;;;;;;;3.90;100.00;102833.50;4970475;28;20126;-67
2021/10/11 05:55:06;;;;;;;3.60;1.23;;;;;;;3.95;100.00;102831.47;4955226;28;20022;-65
2021/10/11 05:57:32;;;;;;;2.08;1.30;;;;;;;4.01;100.00;102837.41;4944659;28;20054;-63
2021/10/11 05:59:59;;;;;;;3.45;1.35;;;;;;;4.05;100.00;102842.50;4950826;28;20109;-65
2021/10/11 06:02:25;;;;;;;2.28;1.35;;;;;;;4.07;100.00;102837.91;4939699;28;20531;-65
2021/10/11 06:04:51;;;;;;;3.80;1.20;;;;;;;4.08;100.00;102836.13;4972262;28;20038;-65
2021/10/11 06:07:16;;;;;;;3.40;1.50;;;;;;;4.09;100.00;102832.53;4940684;28;20077;-67
2021/10/11 06:09:42;;;;;;;3.83;1.50;;;;;;;4.12;100.00;102840.34;4957713;28;20058;-67
2021/10/11 06:12:08;;;;;;;3.08;1.52;;;;;;;4.15;100.00;102841.06;4955704;28;20121;-62
2021/10/11 06:14:34;;;;;;;3.90;1.20;;;;;;;4.20;100.00;102846.09;4954563;28;20034;-66
2021/10/11 06:16:59;;;;;;;3.45;1.80;;;;;;;4.23;100.00;102837.09;4947336;28;20066;-64
2021/10/11 06:19:25;;;;;;;4.18;1.90;;;;;;;4.20;100.00;102835.47;4971597;28;20488;-64
2021/10/11 06:21:51;;;;;;;2.42;1.55;;;;;;;4.19;100.00;102836.41;4939740;28;20081;-68
2021/10/11 06:24:17;;;;;;;3.47;1.45;;;;;;;4.15;100.00;102837.50;4939468;28;20050;-65
2021/10/11 06:26:42;;;;;;;2.28;1.00;;;;;;;4.10;100.00;102834.22;4962218;28;20042;-64
2021/10/11 06:29:08;;;;;;;3.65;1.20;;;;;;;4.03;100.00;102833.72;4971435;28;20318;-64
2021/10/11 06:31:34;;;;;;;3.40;1.20;;;;;;;4.06;100.00;102838.00;4940048;28;20038;-65
2021/10/11 06:34:00;;;;;;;4.22;1.08;;;;;;;4.06;100.00;102835.34;4930115;28;20035;-66
2021/10/11 06:36:28;;;;;;;2.17;1.10;;;;;;;4.12;100.00;102835.00;4965512;28;20105;-63
2021/10/11 06:38:53;;;;;;;4.30;1.15;;;;;;;4.20;100.00;102830.13;4970635;28;20063;-67
2021/10/11 06:41:19;;;;;;;4.72;1.55;;;;;;;4.22;100.00;102836.25;4939846;28;20038;-67
2021/10/11 06:43:45;;;;;;;2.92;1.20;;;;;;;4.28;100.00;102829.72;4955450;28;20035;-68
2021/10/11 06:46:11;;;;;;;3.00;1.38;;;;;;;4.35;100.00;102829.28;4946283;28;20606;-63
2021/10/11 06:48:37;;;;;;;4.72;1.40;;;;;;;4.44;100.00;102829.72;4964913;28;20031;-64
2021/10/11 06:51:05;;;;;;;4.22;1.50;;;;;;;4.48;100.00;102836.63;4954591;28;20121;-64
2021/10/11 06:53:31;;;;;;;4.45;1.50;;;;;;;4.56;100.00;102840.56;4962420;28;20049;-64
2021/10/11 06:55:59;;;;;;;5.70;1.80;;;;;;;4.59;100.00;102835.06;4968826;28;20023;-66
2021/10/11 06:58:25;;;;;;;5.72;1.58;;;;;;;4.67;100.00;102837.31;4936465;28;20061;-65
2021/10/11 07:00:51;;;;;;;5.03;1.40;;;;;;;4.69;100.00;102831.91;4970964;28;20068;-64
2021/10/11 07:03:23;;;;;;;5.20;1.85;;;;;;;4.75;100.00;102845.72;4939164;28;20047;-64
2021/10/11 07:05:50;;;;;;;5.28;1.33;;;;;;;4.77;100.00;102837.66;4933984;28;20178;-65
2021/10/11 07:08:15;;;;;;;4.85;1.30;;;;;;;4.77;100.00;102838.50;4954587;28;20038;-64
2021/10/11 07:10:42;;;;;;;5.10;1.92;;;;;;;4.72;100.00;102832.56;4955098;28;20042;-64
2021/10/11 07:13:08;;;;;;;5.78;1.70;;;;;;;4.78;100.00;102845.53;4938395;28;20038;-65
2021/10/11 07:15:34;;;;;;;8.32;2.72;;;;;;;4.77;100.00;102843.84;4971739;28;20202;-68
2021/10/11 07:18:00;;;;;;;8.35;1.65;;;;;;;4.77;100.00;102851.81;4947330;28;20042;-64
2021/10/11 07:20:29;;;;;;;6.63;2.00;;;;;;;4.78;100.00;102852.69;4938040;28;20121;-64
2021/10/11 07:22:55;;;;;;;6.07;1.77;;;;;;;4.79;100.00;102851.72;4971257;28;20039;-64
2021/10/11 07:25:21;;;;;;;10.43;2.30;;;;;;;4.77;100.00;102853.63;4947373;28;20101;-63
2021/10/11 07:27:46;;;;;;;9.05;2.50;;;;;;;4.85;100.00;102865.56;4950445;28;20090;-64
2021/10/11 07:30:12;;;;;;;7.70;2.53;;;;;;;4.94;100.00;102866.00;4938296;28;20046;-71
2021/10/11 07:32:38;;;;;;;8.30;2.42;;;;;;;5.02;100.00;102869.09;4978804;28;20423;-69
2021/10/11 07:35:04;;;;;;;8.48;3.17;;;;;;;5.09;100.00;102864.28;4955605;28;20058;-65
2021/10/11 07:37:30;;;;;;;6.95;2.90;;;;;;;5.15;100.00;102866.56;4939013;28;20045;-67
2021/10/11 07:39:55;;;;;;;6.78;2.80;;;;;;;5.20;100.00;102865.34;4937445;28;20053;-67
2021/10/11 07:42:21;;;;;;;5.38;2.53;;;;;;;5.28;100.00;102871.09;4957596;28;20396;-67
2021/10/11 07:44:47;;;;;;;11.70;3.58;;;;;;;5.31;100.00;102864.72;4954572;28;20380;-64
2021/10/11 07:47:12;;;;;;;6.07;2.25;;;;;;;5.36;100.00;102861.81;4935493;29;20047;-65
2021/10/11 07:49:39;;;;;;;8.30;2.03;;;;;;;5.43;100.00;102868.50;4968770;28;20034;-64
2021/10/11 07:52:05;;;;;;;5.45;1.98;;;;;;;5.54;100.00;102882.06;4938626;28;20038;-67
2021/10/11 07:54:31;;;;;;;4.18;1.98;;;;;;;5.66;100.00;102872.44;4949404;29;20070;-63
2021/10/11 07:56:58;;;;;;;6.65;2.30;;;;;;;5.79;100.00;102867.25;4937618;28;20065;-63
2021/10/11 07:59:25;;;;;;;4.10;1.50;;;;;;;5.87;100.00;102873.81;4943076;29;20050;-67
2021/10/11 08:01:51;;;;;;;5.47;1.85;;;;;;;6.02;100.00;102885.41;4969095;28;20031;-64
2021/10/11 08:04:17;;;;;;;5.13;2.60;;;;;;;6.12;100.00;102891.91;4938512;28;20134;-64
2021/10/11 08:06:43;;;;;;;4.38;1.88;;;;;;;6.23;100.00;102885.91;4952599;28;20043;-64
2021/10/11 08:09:10;;;;;;;4.43;1.65;;;;;;;6.38;100.00;102886.78;4941317;28;20042;-65
2021/10/11 08:11:35;;;;;;;4.35;1.75;;;;;;;6.49;99.72;102892.31;4970946;28;20043;-64
2021/10/11 08:14:02;;;;;;;6.75;2.08;;;;;;;6.63;100.00;102893.25;4941916;29;20035;-64
2021/10/11 08:16:29;;;;;;;5.72;1.40;;;;;;;6.71;99.71;102893.59;4952749;28;20049;-63
2021/10/11 08:18:55;;;;;;;4.45;1.77;;;;;;;6.89;100.00;102897.78;4941338;28;20043;-67
2021/10/11 08:21:20;;;;;;;6.85;1.67;;;;;;;7.07;100.00;102902.91;4953141;28;20513;-64
2021/10/11 08:23:51;;;;;;;4.05;1.60;;;;;;;7.20;100.00;102901.13;4958135;28;20049;-68
2021/10/11 08:26:17;;;;;;;6.15;1.55;;;;;;;7.35;100.00;102896.56;4942587;28;20112;-66
2021/10/11 08:28:43;;;;;;;12.05;1.70;;;;;;;7.43;99.49;102892.41;4941417;28;20498;-64
2021/10/11 08:31:09;;;;;;;2.35;1.33;;;;;;;7.56;99.37;102888.91;4943479;28;20089;-65
2021/10/11 08:33:35;;;;;;;3.90;1.33;;;;;;;7.71;99.27;102893.22;4966002;28;20517;-65
2021/10/11 08:36:01;;;;;;;8.93;1.67;;;;;;;7.96;98.47;102889.69;4941825;28;20396;-63
2021/10/11 08:38:29;;;;;;;10.93;1.60;;;;;;;8.03;98.30;102890.16;4958037;28;20456;-64
2021/10/11 08:40:56;;;;;;;5.97;1.83;;;;;;;7.91;98.24;102886.47;4964368;28;20042;-65
2021/10/11 08:43:23;;;;;;;4.35;1.65;;;;;;;7.80;97.99;102889.06;4976743;28;20045;-64
2021/10/11 08:45:50;;;;;;;4.30;1.30;;;;;;;7.72;98.59;102882.38;4953855;28;20404;-63
2021/10/11 08:48:17;;;;;;;7.18;1.73;;;;;;;7.71;98.72;102887.88;4957907;28;20061;-64
2021/10/11 08:50:42;;;;;;;4.82;1.52;;;;;;;7.77;98.09;102898.16;4941477;28;20042;-63
2021/10/11 08:53:09;;;;;;;4.93;1.48;;;;;;;7.80;98.23;102891.72;4944722;28;20038;-67
2021/10/11 08:55:35;;;;;;;3.00;1.30;;;;;;;7.99;97.81;102892.19;4960547;28;20050;-66
2021/10/11 08:58:03;;;;;;;5.20;1.52;;;;;;;8.44;97.26;102891.75;4935276;28;20031;-63
2021/10/11 09:00:36;;;;;;;6.32;1.52;;;;;;;8.77;96.46;102897.38;4941064;28;20431;-64
2021/10/11 09:03:03;;;;;;;9.55;1.50;;;;;;;9.09;95.94;102899.50;4983356;28;20039;-67
2021/10/11 09:05:34;;;;;;;3.30;1.50;;;;;;;9.45;95.18;102895.06;4941520;28;20066;-64
2021/10/11 09:08:01;;;;;;;4.68;1.45;;;;;;;9.99;94.16;102894.47;4966282;28;20030;-68
2021/10/11 09:10:28;;;;;;;3.85;1.30;;;;;;;10.63;92.41;102903.81;4954736;28;20142;-64
2021/10/11 09:12:54;;;;;;;5.20;1.92;;;;;;;11.00;91.89;102901.66;4966413;28;20090;-65
2021/10/11 09:15:20;;;;;;;11.20;2.75;;;;;;;11.73;90.72;102899.19;4941867;28;20049;-64
2021/10/11 09:17:56;;;;;;;7.80;1.77;;;;;;;12.14;89.65;102892.09;4972927;28;20046;-65
2021/10/11 09:20:24;;;;;;;9.27;2.30;;;;;;;12.11;89.36;102898.59;4939365;28;20053;-67
2021/10/11 09:22:52;;;;;;;9.73;2.15;;;;;;;12.22;89.05;102890.41;4943002;28;20038;-63
2021/10/11 09:25:20;;;;;;;7.57;2.33;;;;;;;12.05;89.60;102891.06;4941124;28;20060;-64
2021/10/11 09:27:54;;;;;;;10.77;2.47;;;;;;;11.73;90.66;102893.81;4967892;28;20027;-66
2021/10/11 09:30:43;;;;;;;9.82;2.08;;;;;;;11.35;91.67;102905.97;4936988;29;20065;-64
2021/10/11 09:33:21;;;;;;;5.90;1.90;;;;;;;11.17;92.72;102903.84;4954854;28;20041;-66
2021/10/11 09:35:49;;;;;;;6.72;1.83;;;;;;;11.07;92.98;102910.09;4969628;28;20046;-63
2021/10/11 09:38:25;;;;;;;4.53;1.67;;;;;;;11.11;93.10;102903.47;4956243;28;20027;-64
2021/10/11 09:40:56;;;;;;;14.77;3.55;;;;;;;11.27;93.23;102914.69;4970325;28;20039;-63
2021/10/11 09:43:27;;;;;;;17.90;8.70;;;;;;;11.43;92.56;102915.13;4940330;28;20034;-66
2021/10/11 09:45:53;;;;;;;11.90;3.25;;;;;;;11.59;92.36;102905.72;4967556;28;20046;-65
2021/10/11 09:48:20;;;;;;;18.90;2.95;;;;;;;11.69;92.24;102909.34;4945559;29;20071;-64
2021/10/11 09:50:46;;;;;;;11.35;2.58;;;;;;;11.78;91.83;102903.19;4938754;28;20089;-63
2021/10/11 09:53:16;;;;;;;28.58;7.50;;;;;;;11.90;91.69;102901.31;4945902;28;20121;-65
2021/10/11 09:56:03;;;;;;;11.18;3.20;;;;;;;12.08;91.17;102898.88;4966122;28;20098;-68
2021/10/11 09:58:29;;;;;;;18.08;3.85;;;;;;;12.31;90.71;102900.41;4946094;28;20341;-67
2021/10/11 10:00:54;;;;;;;14.32;3.03;;;;;;;12.42;89.72;102895.91;4939842;28;20125;-65
2021/10/11 10:03:20;;;;;;;10.55;2.40;;;;;;;12.40;89.40;102893.34;4939888;28;20094;-67
2021/10/11 10:05:48;;;;;;;8.20;1.80;;;;;;;12.18;89.00;102889.00;4940350;28;20321;-64
2021/10/11 10:08:17;;;;;;;8.35;3.25;;;;;;;11.84;89.78;102883.78;4939955;28;20042;-64
2021/10/11 10:10:43;;;;;;;11.60;2.10;;;;;;;11.60;90.99;102883.22;4939275;28;20495;-66
2021/10/11 10:13:20;;;;;;;15.57;2.63;;;;;;;11.42;91.14;102888.31;4939585;28;20034;-65
2021/10/11 10:15:46;;;;;;;16.88;2.50;;;;;;;11.27;91.61;102893.13;4939127;28;20047;-62
2021/10/11 10:18:15;;;;;;;19.13;4.00;;;;;;;11.22;91.80;102884.59;4940026;28;20124;-65
2021/10/11 10:21:00;;;;;;;26.17;3.50;;;;;;;11.85;90.52;102887.34;4940201;28;20128;-63
2021/10/11 10:23:30;;;;;;;11.00;3.70;;;;;;;13.04;86.86;102894.78;4942631;28;20038;-65
2021/10/11 10:25:57;;;;;;;13.27;2.58;;;;;;;13.82;83.58;102892.13;4947776;28;20035;-65
2021/10/11 10:28:27;;;;;;;8.88;1.95;;;;;;;14.40;81.66;102891.97;4941846;28;20023;-63
2021/10/11 10:30:58;;;;;;;11.60;2.28;;;;;;;14.82;79.58;102891.50;4939303;28;20511;-63
2021/10/11 10:33:36;;;;;;;20.50;2.97;;;;;;;14.98;78.24;102882.69;4939342;28;20085;-65
2021/10/11 10:36:03;;;;;;;18.42;3.63;;;;;;;14.56;77.96;102879.69;4955523;28;20042;-66
2021/10/11 10:38:31;;;;;;;10.90;3.20;;;;;;;14.34;79.08;102883.56;4938913;28;20034;-64
2021/10/11 10:40:57;;;;;;;23.27;3.28;;;;;;;14.18;79.51;102881.50;4960543;28;20086;-65
2021/10/11 10:43:23;;;;;;;15.57;4.22;;;;;;;13.81;80.08;102885.88;4943507;28;20046;-64
2021/10/11 10:45:49;;;;;;;14.73;2.97;;;;;;;13.43;82.00;102886.75;4966145;28;20035;-63
2021/10/11 10:48:23;;;;;;;14.05;3.20;;;;;;;13.26;82.91;102882.03;4938308;28;20100;-65
2021/10/11 10:50:51;;;;;;;15.93;4.60;;;;;;;13.14;83.10;102873.22;4937958;28;20147;-66
2021/10/11 10:53:17;;;;;;;15.52;4.20;;;;;;;13.06;83.69;102860.41;4957258;28;20045;-65
2021/10/11 10:55:43;;;;;;;9.50;2.20;;;;;;;13.04;83.01;102862.38;4971134;28;20480;-66
2021/10/11 10:58:11;;;;;;;11.80;2.63;;;;;;;13.03;82.98;102859.84;4969813;28;20033;-66
2021/10/11 11:00:40;;;;;;;10.88;2.45;;;;;;;12.99;83.17;102853.84;4945962;28;20049;-71
2021/10/11 11:03:13;;;;;;;9.35;2.75;;;;;;;13.02;83.24;102850.00;4942113;28;20043;-67
2021/10/11 11:05:42;;;;;;;9.98;2.40;;;;;;;13.03;83.86;102858.00;4949297;28;20049;-67
2021/10/11 11:08:08;;;;;;;14.77;2.53;;;;;;;13.00;83.26;102852.03;4952341;28;20392;-64
2021/10/11 11:10:37;;;;;;;13.50;1.92;;;;;;;12.93;83.40;102849.03;4948268;28;20078;-64
2021/10/11 11:13:06;;;;;;;10.60;1.83;;;;;;;12.86;83.64;102850.56;4955574;28;20034;-66
2021/10/11 11:15:34;;;;;;;7.40;1.90;;;;;;;12.74;83.15;102842.59;4971463;28;20113;-64
2021/10/11 11:18:02;;;;;;;8.43;1.75;;;;;;;12.75;84.21;102847.03;4953586;28;20038;-65
2021/10/11 11:20:33;;;;;;;13.43;2.65;;;;;;;12.63;83.84;102842.72;4963745;28;20441;-64
2021/10/11 11:23:02;;;;;;;12.10;2.28;;;;;;;12.64;84.13;102843.56;4970498;28;20114;-66